Time;durP1;ratioP1;P1;durP2;ratioP2;P2;SDS_P1;SDS_P2;PMS_P1;PMS_P2;Temp;Humidity;BMP_temperature;BMP_pressure;BME280_temperature;BME280_humidity;BME280_pressure;Samples;Min_cycle;Max_cycle;Signal;HPM_P1;HPM_P2
2022/04/16 00:01:03;;;;;;;9.98;6.20;;;7.20;99.90;;;;;;5087065;28;20230;-50
2022/04/16 00:03:29;;;;;;;12.05;5.57;;;7.20;99.90;;;;;;5086839;28;20519;-47
2022/04/16 00:05:56;;;;;;;13.07;6.15;;;7.10;99.90;;;;;;5086924;28;20220;-48
2022/04/16 00:08:24;;;;;;;10.20;5.60;;;7.10;99.90;;;;;;5086298;28;20370;-47
2022/04/16 00:10:50;;;;;;;9.63;5.38;;;7.10;99.90;;;;;;5087486;28;20032;-47
2022/04/16 00:13:18;;;;;;;11.85;5.70;;;7.00;99.90;;;;;;5086430;28;20484;-47
2022/04/16 00:15:49;;;;;;;9.07;4.50;;;7.00;99.90;;;;;;5077125;28;20086;-47
2022/04/16 00:18:15;;;;;;;9.57;4.97;;;7.00;99.90;;;;;;5087714;28;20101;-49
2022/04/16 00:20:41;;;;;;;9.40;4.55;;;7.00;99.90;;;;;;5085950;28;20111;-47
2022/04/16 00:23:07;;;;;;;10.80;4.50;;;6.90;99.90;;;;;;5086649;28;20397;-48
2022/04/16 00:25:34;;;;;;;7.55;4.28;;;6.90;99.90;;;;;;5085928;28;20028;-49
2022/04/16 00:28:01;;;;;;;5.90;4.05;;;6.90;99.90;;;;;;5086913;28;20020;-48
2022/04/16 00:30:26;;;;;;;6.25;4.15;;;6.90;99.90;;;;;;5087027;28;20374;-48
2022/04/16 00:32:54;;;;;;;6.80;4.50;;;6.80;99.90;;;;;;5086504;28;20028;-51
2022/04/16 00:35:20;;;;;;;10.23;4.28;;;6.70;99.90;;;;;;5087279;28;20051;-49
2022/04/16 00:37:46;;;;;;;5.95;3.88;;;6.60;99.90;;;;;;5086896;28;20539;-49
2022/04/16 00:40:12;;;;;;;5.85;3.95;;;6.50;99.90;;;;;;5085755;28;20130;-47
2022/04/16 00:42:44;;;;;;;7.07;3.70;;;6.40;99.90;;;;;;5087294;28;20103;-47
2022/04/16 00:45:10;;;;;;;5.45;4.00;;;6.30;99.90;;;;;;5084861;28;20108;-47
2022/04/16 00:47:36;;;;;;;6.90;3.33;;;6.20;99.90;;;;;;5069986;28;20492;-48
2022/04/16 00:50:08;;;;;;;6.28;3.70;;;6.10;99.90;;;;;;5067355;28;20021;-47
2022/04/16 00:52:34;;;;;;;7.75;3.92;;;6.00;99.90;;;;;;5066943;28;20056;-49
2022/04/16 00:55:00;;;;;;;5.35;3.53;;;6.00;99.90;;;;;;5066626;28;20056;-48
2022/04/16 00:57:26;;;;;;;5.45;3.55;;;5.90;99.90;;;;;;5066805;28;20028;-47
2022/04/16 00:59:53;;;;;;;5.03;3.47;;;5.80;99.90;;;;;;5066072;28;20086;-47
2022/04/16 01:02:19;;;;;;;6.30;4.05;;;5.80;99.90;;;;;;5066536;28;20057;-48
2022/04/16 01:04:44;;;;;;;4.97;3.38;;;5.70;99.90;;;;;;5066270;28;20056;-47
2022/04/16 01:07:10;;;;;;;5.47;3.75;;;5.70;99.90;;;;;;5067534;28;20047;-48
2022/04/16 01:09:35;;;;;;;6.80;3.63;;;5.70;99.90;;;;;;5069940;28;20279;-48
2022/04/16 01:12:01;;;;;;;8.50;4.47;;;5.60;99.90;;;;;;5070297;28;20273;-48
2022/04/16 01:14:29;;;;;;;6.45;3.90;;;5.50;99.90;;;;;;5077050;28;20417;-48
2022/04/16 01:16:57;;;;;;;10.15;3.80;;;5.50;99.90;;;;;;5081948;28;20054;-48
2022/04/16 01:19:23;;;;;;;7.38;3.72;;;5.50;99.90;;;;;;5090288;28;20036;-48
2022/04/16 01:21:50;;;;;;;8.18;4.07;;;5.40;99.90;;;;;;5089827;28;20170;-48
2022/04/16 01:24:15;;;;;;;6.95;3.95;;;5.30;99.90;;;;;;5089702;28;20481;-48
2022/04/16 01:26:44;;;;;;;7.15;4.13;;;5.20;99.90;;;;;;5090203;28;20026;-48
2022/04/16 01:29:10;;;;;;;6.82;3.78;;;5.20;99.90;;;;;;5090153;28;20477;-48
2022/04/16 01:31:36;;;;;;;7.75;4.07;;;5.10;99.90;;;;;;5090120;28;20020;-48
2022/04/16 01:34:03;;;;;;;5.88;3.58;;;5.10;99.90;;;;;;5088114;28;20035;-48
2022/04/16 01:36:34;;;;;;;10.13;4.05;;;5.10;99.90;;;;;;5090253;28;20023;-49
2022/04/16 01:39:00;;;;;;;7.43;4.22;;;5.00;99.90;;;;;;5088632;28;20066;-50
2022/04/16 01:41:27;;;;;;;13.95;4.22;;;4.90;99.90;;;;;;5090084;28;20024;-48
2022/04/16 01:43:54;;;;;;;6.22;3.30;;;4.90;99.90;;;;;;5087919;28;20008;-48
2022/04/16 01:46:19;;;;;;;6.50;3.60;;;4.90;99.90;;;;;;5081459;28;20031;-50
2022/04/16 01:48:45;;;;;;;10.90;4.30;;;4.80;99.90;;;;;;5088358;28;20016;-48
2022/04/16 01:51:10;;;;;;;9.23;3.88;;;4.80;99.90;;;;;;5089589;28;20063;-50
2022/04/16 01:53:37;;;;;;;8.32;3.65;;;4.70;99.90;;;;;;5089149;28;20343;-49
2022/04/16 01:56:02;;;;;;;6.35;3.80;;;4.80;99.90;;;;;;5089606;28;20028;-49
2022/04/16 01:58:28;;;;;;;6.30;4.15;;;4.70;99.90;;;;;;5089453;28;20519;-49
2022/04/16 02:00:55;;;;;;;6.80;4.20;;;4.70;99.90;;;;;;5087949;28;20035;-48
2022/04/16 02:03:21;;;;;;;8.82;4.22;;;4.60;99.90;;;;;;5088800;28;20489;-49
2022/04/16 02:05:47;;;;;;;7.68;3.78;;;4.50;99.90;;;;;;5089531;28;20103;-48
2022/04/16 02:08:12;;;;;;;6.65;4.15;;;4.50;99.90;;;;;;5089042;28;20497;-51
2022/04/16 02:10:38;;;;;;;6.20;3.50;;;4.50;99.90;;;;;;5088092;28;20032;-48
2022/04/16 02:13:04;;;;;;;8.38;3.67;;;4.50;99.90;;;;;;5088727;28;20028;-48
2022/04/16 02:15:30;;;;;;;10.23;4.95;;;4.30;99.90;;;;;;5078988;28;20614;-48
2022/04/16 02:17:56;;;;;;;7.25;4.00;;;4.30;99.90;;;;;;5089386;28;20028;-47
2022/04/16 02:20:23;;;;;;;6.55;3.22;;;4.30;99.90;;;;;;5089044;28;20043;-47
2022/04/16 02:22:49;;;;;;;5.75;3.28;;;4.20;99.90;;;;;;5087589;28;20020;-47
2022/04/16 02:25:20;;;;;;;6.75;3.42;;;4.20;99.90;;;;;;5088610;28;20434;-47
2022/04/16 02:27:46;;;;;;;3.88;2.90;;;4.10;99.90;;;;;;5089121;28;20500;-47
2022/04/16 02:30:14;;;;;;;5.10;2.90;;;4.10;99.90;;;;;;5088504;28;20024;-47
2022/04/16 02:32:41;;;;;;;6.60;3.33;;;4.10;99.90;;;;;;5089242;28;20020;-46
2022/04/16 02:35:07;;;;;;;4.35;2.83;;;4.10;99.90;;;;;;5088396;28;20574;-47
2022/04/16 02:37:33;;;;;;;6.43;3.67;;;4.00;99.90;;;;;;5089464;28;20020;-49
2022/04/16 02:40:01;;;;;;;7.95;3.72;;;4.00;99.90;;;;;;5089128;28;20024;-47
2022/04/16 02:42:27;;;;;;;10.55;4.07;;;4.00;99.90;;;;;;5089036;28;20389;-46
2022/04/16 02:47:36;;;;;;;5.10;3.10;;;4.00;99.90;;;;;;5086449;28;20051;-47
2022/04/16 02:50:02;;;;;;;8.45;3.85;;;3.90;99.90;;;;;;5088543;28;20024;-49
2022/04/16 02:52:33;;;;;;;7.13;3.45;;;3.90;99.90;;;;;;5089114;28;20028;-48
2022/04/16 02:54:58;;;;;;;6.10;4.00;;;3.80;99.90;;;;;;5086646;28;20024;-49
2022/04/16 02:57:24;;;;;;;6.80;3.33;;;3.70;99.90;;;;;;5087130;28;20039;-48
2022/04/16 02:59:49;;;;;;;12.52;4.10;;;3.70;99.90;;;;;;5088497;28;20027;-48
2022/04/16 03:02:15;;;;;;;6.65;3.88;;;3.60;99.90;;;;;;5088066;28;20515;-48
2022/04/16 03:04:40;;;;;;;8.63;3.88;;;3.60;99.90;;;;;;5088006;28;20020;-47
2022/04/16 03:07:06;;;;;;;9.23;3.90;;;3.50;99.90;;;;;;5087938;28;20388;-47
2022/04/16 03:09:31;;;;;;;6.07;3.47;;;3.50;99.90;;;;;;5088702;28;20409;-48
2022/04/16 03:11:58;;;;;;;12.55;3.97;;;3.50;99.90;;;;;;5088538;28;20594;-48
2022/04/16 03:19:52;;;;;;;6.57;3.63;;;3.50;99.90;;;;;;5088257;28;20074;-48
2022/04/16 03:22:18;;;;;;;8.85;3.85;;;3.50;99.90;;;;;;5088063;28;20473;-49
2022/04/16 03:24:43;;;;;;;9.55;4.05;;;3.30;99.90;;;;;;5087890;28;20031;-49
2022/04/16 03:27:09;;;;;;;6.90;4.03;;;3.30;99.90;;;;;;5088170;28;20021;-49
2022/04/16 03:29:34;;;;;;;12.32;3.80;;;3.30;99.90;;;;;;5087512;28;20020;-49
2022/04/16 03:32:00;;;;;;;5.38;3.78;;;3.20;99.90;;;;;;5088059;28;20153;-49
2022/04/16 03:34:26;;;;;;;4.97;3.55;;;3.20;99.90;;;;;;5087146;28;20506;-49
2022/04/16 03:36:51;;;;;;;13.40;3.90;;;3.20;99.90;;;;;;5087419;28;20427;-49
2022/04/16 03:39:16;;;;;;;8.90;4.35;;;3.20;99.90;;;;;;5087358;28;20039;-48
2022/04/16 03:41:42;;;;;;;9.32;4.10;;;3.20;99.90;;;;;;5087670;28;20107;-48
2022/04/16 03:44:08;;;;;;;8.07;4.28;;;3.10;99.90;;;;;;5084497;28;20099;-47
2022/04/16 03:46:33;;;;;;;6.43;3.95;;;3.20;99.90;;;;;;5079099;28;20016;-47
2022/04/16 03:49:02;;;;;;;6.65;3.85;;;3.10;99.90;;;;;;5087453;28;20035;-48
2022/04/16 03:51:27;;;;;;;6.40;3.90;;;3.00;99.90;;;;;;5087594;28;20032;-48
2022/04/16 03:53:54;;;;;;;11.82;4.50;;;3.00;99.90;;;;;;5086949;28;20039;-50
2022/04/16 04:01:47;;;;;;;5.75;3.40;;;2.90;99.90;;;;;;5087424;28;20035;-49
2022/04/16 04:04:13;;;;;;;6.38;4.38;;;2.90;99.90;;;;;;5086423;28;20020;-48
2022/04/16 04:06:38;;;;;;;6.75;3.20;;;2.90;99.90;;;;;;5087452;28;20024;-48
2022/04/16 04:09:04;;;;;;;6.05;3.67;;;2.90;99.90;;;;;;5087730;28;20039;-49
2022/04/16 04:11:29;;;;;;;9.40;4.22;;;2.90;99.90;;;;;;5079561;28;20020;-48
2022/04/16 04:13:55;;;;;;;7.28;3.88;;;2.80;99.90;;;;;;5068920;28;20521;-49
2022/04/16 04:16:22;;;;;;;8.55;4.35;;;2.80;99.90;;;;;;5078774;28;20360;-49
2022/04/16 04:18:48;;;;;;;9.32;4.55;;;2.80;99.90;;;;;;5075629;28;20024;-48
2022/04/16 04:21:13;;;;;;;7.65;4.57;;;2.80;99.90;;;;;;5087388;28;20266;-49
2022/04/16 04:23:39;;;;;;;7.93;4.30;;;2.80;99.90;;;;;;5087059;28;20020;-48
2022/04/16 04:26:04;;;;;;;6.55;3.95;;;2.80;99.90;;;;;;5087381;28;20020;-50
2022/04/16 04:28:30;;;;;;;8.45;3.70;;;2.80;99.90;;;;;;5073613;28;20507;-48
2022/04/16 04:30:55;;;;;;;6.03;3.58;;;2.80;99.90;;;;;;5059291;28;20064;-48
2022/04/16 04:33:21;;;;;;;5.75;3.72;;;2.70;99.90;;;;;;5045910;28;20044;-49
2022/04/16 04:35:50;;;;;;;5.97;4.00;;;2.70;99.90;;;;;;5046970;28;20037;-48
2022/04/16 04:38:15;;;;;;;6.85;4.30;;;2.70;99.90;;;;;;5045662;28;20028;-49
2022/04/16 04:40:41;;;;;;;9.50;4.05;;;2.70;99.90;;;;;;5045659;28;20393;-49
2022/04/16 04:43:06;;;;;;;6.95;4.13;;;2.70;99.90;;;;;;5048752;28;20075;-48
2022/04/16 04:45:32;;;;;;;6.35;3.65;;;2.70;99.90;;;;;;5049417;28;20054;-50
2022/04/16 04:47:58;;;;;;;7.93;4.63;;;2.80;99.90;;;;;;5070677;28;20083;-50
2022/04/16 04:50:23;;;;;;;9.95;4.38;;;2.70;99.90;;;;;;5086861;28;20020;-49
2022/04/16 04:52:49;;;;;;;9.95;4.28;;;2.70;99.90;;;;;;5090807;28;20024;-48
2022/04/16 04:55:14;;;;;;;6.55;4.38;;;2.70;99.90;;;;;;5090171;28;20119;-49
2022/04/16 04:57:41;;;;;;;6.97;4.15;;;2.70;99.90;;;;;;5090788;28;20137;-49
2022/04/16 05:00:08;;;;;;;8.38;4.22;;;2.70;99.90;;;;;;5090435;28;20032;-48
2022/04/16 05:02:43;;;;;;;9.27;3.92;;;2.70;99.90;;;;;;5090856;28;20070;-49
2022/04/16 05:05:09;;;;;;;7.55;4.70;;;2.70;99.90;;;;;;5090407;28;20050;-48
2022/04/16 05:07:35;;;;;;;7.32;4.80;;;2.70;99.90;;;;;;5090822;28;20020;-49
2022/04/16 05:10:01;;;;;;;7.82;3.95;;;2.70;99.90;;;;;;5090474;28;20534;-46
2022/04/16 05:12:26;;;;;;;8.73;3.97;;;2.70;99.90;;;;;;5089114;28;20086;-48
2022/04/16 05:14:52;;;;;;;9.00;4.20;;;2.80;99.90;;;;;;5077883;28;20086;-47
2022/04/16 05:17:17;;;;;;;6.95;3.92;;;2.80;99.90;;;;;;5076229;28;20385;-47
2022/04/16 05:19:43;;;;;;;6.72;4.05;;;2.80;99.90;;;;;;5082185;28;20042;-46
2022/04/16 05:22:08;;;;;;;8.63;4.07;;;2.90;99.90;;;;;;5090488;28;20024;-47
2022/04/16 05:24:33;;;;;;;7.32;3.58;;;2.90;99.90;;;;;;5089692;28;20119;-47
2022/04/16 05:26:59;;;;;;;8.77;4.22;;;2.80;99.90;;;;;;5089379;28;20050;-47
2022/04/16 05:29:24;;;;;;;6.80;3.53;;;2.90;99.90;;;;;;5090266;28;20489;-47
2022/04/16 05:31:50;;;;;;;11.95;4.53;;;2.90;99.90;;;;;;5088760;28;20028;-48
2022/04/16 05:34:18;;;;;;;9.52;4.05;;;3.00;99.90;;;;;;5089675;28;20305;-48
2022/04/16 05:36:46;;;;;;;12.93;4.13;;;3.00;99.90;;;;;;5084357;28;20493;-49
2022/04/16 05:39:11;;;;;;;8.52;4.22;;;3.10;99.90;;;;;;5049515;28;20036;-46
2022/04/16 05:41:37;;;;;;;6.07;3.90;;;3.10;99.90;;;;;;5050051;28;20029;-49
2022/04/16 05:44:04;;;;;;;8.23;4.35;;;3.10;99.90;;;;;;5046711;28;20098;-48
2022/04/16 05:46:31;;;;;;;18.40;5.63;;;3.10;99.90;;;;;;5049810;28;20509;-48
2022/04/16 05:48:56;;;;;;;11.50;4.63;;;3.20;99.90;;;;;;5059538;28;20025;-48
2022/04/16 05:51:24;;;;;;;6.80;3.58;;;3.20;99.90;;;;;;5068747;28;20035;-48
2022/04/16 05:53:50;;;;;;;11.68;3.63;;;3.20;99.90;;;;;;5067379;28;20028;-48
2022/04/16 05:56:17;;;;;;;6.88;3.55;;;3.20;99.90;;;;;;5068494;28;20541;-46
2022/04/16 05:58:43;;;;;;;6.35;4.15;;;3.20;99.90;;;;;;5059841;28;20051;-48
2022/04/16 06:01:09;;;;;;;9.13;4.03;;;3.30;99.90;;;;;;5053129;28;20279;-48
2022/04/16 06:03:36;;;;;;;9.82;3.40;;;3.30;99.90;;;;;;5065147;28;20021;-48
2022/04/16 06:06:03;;;;;;;7.93;3.45;;;3.30;99.90;;;;;;5067342;28;20462;-48
2022/04/16 06:08:29;;;;;;;4.70;3.17;;;3.30;99.90;;;;;;5058787;28;20028;-51
2022/04/16 06:10:54;;;;;;;5.05;3.22;;;3.40;99.90;;;;;;5054874;28;20384;-49
2022/04/16 06:13:20;;;;;;;7.45;3.05;;;3.40;99.90;;;;;;5046925;28;20033;-48
2022/04/16 06:15:45;;;;;;;8.88;3.17;;;3.50;99.90;;;;;;5048643;28;20052;-48
2022/04/16 06:18:11;;;;;;;8.45;3.40;;;3.50;99.90;;;;;;5076653;28;20039;-48
2022/04/16 06:20:37;;;;;;;5.68;2.67;;;3.60;99.90;;;;;;5079505;28;20029;-48
2022/04/16 06:23:04;;;;;;;6.32;3.20;;;3.70;99.90;;;;;;5068032;28;20027;-48
2022/04/16 06:25:29;;;;;;;10.05;2.88;;;3.70;99.90;;;;;;5068126;28;20048;-48
2022/04/16 06:27:55;;;;;;;6.60;2.85;;;3.70;99.90;;;;;;5068741;28;20070;-48
2022/04/16 06:30:21;;;;;;;5.75;3.00;;;3.80;99.90;;;;;;5068054;28;20037;-51
2022/04/16 06:32:46;;;;;;;6.63;3.05;;;3.80;99.90;;;;;;5064911;28;20044;-48
2022/04/16 06:35:12;;;;;;;6.30;2.90;;;3.90;99.90;;;;;;5068176;28;20090;-49
2022/04/16 06:37:38;;;;;;;10.20;3.30;;;4.00;99.90;;;;;;5067951;28;20095;-48
2022/04/16 06:40:06;;;;;;;6.68;2.20;;;4.10;99.90;;;;;;5060910;28;20179;-48
2022/04/16 06:42:32;;;;;;;6.57;2.83;;;4.10;99.90;;;;;;5053012;28;20021;-49
2022/04/16 06:44:58;;;;;;;5.80;2.85;;;4.20;99.90;;;;;;5046437;28;20397;-48
2022/04/16 06:47:24;;;;;;;4.28;2.10;;;4.20;99.90;;;;;;5062860;28;20303;-48
2022/04/16 06:49:49;;;;;;;5.00;2.15;;;4.20;99.90;;;;;;5078871;28;20031;-48
2022/04/16 06:52:18;;;;;;;8.60;2.17;;;4.30;99.90;;;;;;5088238;28;20020;-48
2022/04/16 06:54:44;;;;;;;6.55;2.65;;;4.40;99.90;;;;;;5087928;28;20103;-49
2022/04/16 06:57:10;;;;;;;3.75;1.85;;;4.50;99.90;;;;;;5088803;28;20095;-49
2022/04/16 06:59:37;;;;;;;7.82;2.10;;;4.60;99.90;;;;;;5077862;28;20685;-49
2022/04/16 07:02:04;;;;;;;5.80;2.15;;;4.60;99.90;;;;;;5069127;28;20017;-49
2022/04/16 07:04:29;;;;;;;5.72;2.20;;;4.70;99.90;;;;;;5068313;28;20019;-49
2022/04/16 07:06:55;;;;;;;5.75;2.45;;;4.80;99.90;;;;;;5067965;28;20029;-48
2022/04/16 07:09:20;;;;;;;4.72;2.03;;;4.80;99.90;;;;;;5067696;28;20096;-49
2022/04/16 07:11:46;;;;;;;5.95;2.33;;;4.90;99.90;;;;;;5057611;28;20029;-48
2022/04/16 07:14:11;;;;;;;4.72;1.60;;;5.00;99.90;;;;;;5052066;28;20095;-48
2022/04/16 07:16:37;;;;;;;4.60;2.33;;;5.10;99.90;;;;;;5060705;28;20363;-48
2022/04/16 07:19:02;;;;;;;3.65;1.83;;;5.20;99.90;;;;;;5080837;28;20023;-48
2022/04/16 07:21:28;;;;;;;3.55;2.22;;;5.30;99.90;;;;;;5064754;28;20021;-49
2022/04/16 07:23:53;;;;;;;5.10;2.42;;;5.40;99.90;;;;;;5063832;28;20028;-49
2022/04/16 07:26:19;;;;;;;5.05;1.95;;;5.60;99.90;;;;;;5066439;28;20113;-48
2022/04/16 07:28:44;;;;;;;6.47;2.10;;;5.70;99.90;;;;;;5069148;28;20021;-47
2022/04/16 07:31:10;;;;;;;4.25;1.70;;;5.80;99.90;;;;;;5068638;28;20286;-48
2022/04/16 07:33:35;;;;;;;5.75;1.63;;;5.90;99.90;;;;;;5064881;28;20099;-50
2022/04/16 07:36:01;;;;;;;2.67;1.80;;;6.10;99.90;;;;;;5060953;28;20086;-48
2022/04/16 07:38:27;;;;;;;3.42;1.50;;;6.30;99.90;;;;;;5051220;28;20036;-49
2022/04/16 07:40:54;;;;;;;3.67;1.88;;;6.50;99.90;;;;;;5064134;28;20025;-51
2022/04/16 07:43:19;;;;;;;8.35;1.90;;;7.10;99.90;;;;;;5050512;28;20040;-50
2022/04/16 07:45:45;;;;;;;3.20;2.10;;;7.60;99.90;;;;;;5050961;28;20028;-48
2022/04/16 07:48:10;;;;;;;4.68;1.77;;;7.80;99.90;;;;;;5072203;28;20031;-49
2022/04/16 07:50:36;;;;;;;3.50;1.90;;;8.00;99.90;;;;;;5070851;28;20103;-48
2022/04/16 07:53:02;;;;;;;3.55;1.80;;;8.40;99.90;;;;;;5068114;28;20458;-48
2022/04/16 07:55:31;;;;;;;3.40;1.60;;;9.00;99.90;;;;;;5066643;28;20600;-48
2022/04/16 07:57:57;;;;;;;3.53;1.50;;;9.90;99.90;;;;;;5056334;28;20021;-47
2022/04/16 08:00:23;;;;;;;3.90;1.75;;;10.70;99.90;;;;;;5056194;28;20035;-51
2022/04/16 08:02:48;;;;;;;2.08;1.35;;;11.70;97.10;;;;;;5059243;28;20037;-47
2022/04/16 08:05:14;;;;;;;3.40;1.27;;;12.70;95.60;;;;;;5058925;28;20043;-49
2022/04/16 08:07:39;;;;;;;2.13;1.05;;;14.40;89.80;;;;;;5057353;28;20031;-51
2022/04/16 08:10:06;;;;;;;5.13;1.80;;;16.10;80.70;;;;;;5061377;28;20029;-49
2022/04/16 08:12:31;;;;;;;3.15;1.58;;;16.50;72.90;;;;;;5069106;28;20029;-47
2022/04/16 08:14:57;;;;;;;4.20;1.27;;;18.00;67.80;;;;;;5067061;28;20044;-49
2022/04/16 08:17:22;;;;;;;2.75;1.20;;;18.50;62.40;;;;;;5066768;28;20034;-48
2022/04/16 08:19:48;;;;;;;2.65;1.17;;;19.40;59.40;;;;;;5069050;28;20047;-49
2022/04/16 08:22:18;;;;;;;2.17;1.00;;;19.80;57.60;;;;;;5060412;28;20036;-50
2022/04/16 08:25:43;;;;;;;1.60;0.93;;;20.10;53.80;;;;;;5071930;28;20564;-51
2022/04/16 08:27:32;;;;;;;2.08;0.85;;;20.40;50.50;;;;;;5072332;28;20036;-50
2022/04/16 08:29:57;;;;;;;1.85;1.10;;;20.50;49.10;;;;;;5072065;28;20540;-50
2022/04/16 08:32:23;;;;;;;2.30;0.93;;;20.90;47.60;;;;;;5072310;28;20028;-50
2022/04/16 08:34:49;;;;;;;1.20;0.82;;;20.60;49.30;;;;;;5071611;28;20108;-49
2022/04/16 08:37:14;;;;;;;1.55;0.95;;;21.90;47.60;;;;;;5072223;28;20241;-50
2022/04/16 08:39:40;;;;;;;1.80;0.88;;;22.40;45.80;;;;;;5072144;28;20077;-49
2022/04/16 08:42:05;;;;;;;2.70;1.15;;;22.60;44.10;;;;;;5072155;28;20024;-49
2022/04/16 08:44:32;;;;;;;1.52;1.00;;;23.30;44.40;;;;;;5062154;28;20024;-50
2022/04/16 08:46:59;;;;;;;1.13;0.82;;;23.30;43.50;;;;;;5059201;28;20035;-49
2022/04/16 08:49:25;;;;;;;2.28;1.00;;;23.90;42.10;;;;;;5083753;28;20056;-50
2022/04/16 08:51:51;;;;;;;2.83;1.05;;;24.70;41.90;;;;;;5092248;28;20503;-52
2022/04/16 08:54:16;;;;;;;1.77;0.90;;;24.40;42.90;;;;;;5091595;28;20059;-50
2022/04/16 08:56:42;;;;;;;3.30;0.77;;;24.50;41.60;;;;;;5092061;28;20397;-53
2022/04/16 08:59:08;;;;;;;1.65;0.90;;;23.80;43.10;;;;;;5091933;28;20028;-52
2022/04/16 09:01:36;;;;;;;2.20;1.15;;;23.70;42.00;;;;;;5091793;28;20049;-52
2022/04/16 09:04:02;;;;;;;2.30;0.98;;;23.70;42.60;;;;;;5091534;28;20123;-50
2022/04/16 09:06:27;;;;;;;2.05;0.90;;;24.20;42.10;;;;;;5091882;28;20106;-52
2022/04/16 09:08:54;;;;;;;2.78;1.10;;;24.60;39.90;;;;;;5091927;28;20028;-49
2022/04/16 09:11:24;;;;;;;0.75;0.60;;;25.20;40.20;;;;;;5092916;28;20028;-50
2022/04/16 09:13:49;;;;;;;3.75;1.00;;;25.20;41.60;;;;;;5071209;28;20461;-50
2022/04/16 09:16:16;;;;;;;1.75;0.95;;;25.10;37.50;;;;;;5056433;28;20033;-50
2022/04/16 09:18:51;;;;;;;1.90;1.00;;;26.10;37.30;;;;;;5087558;28;20572;-49
2022/04/16 09:21:19;;;;;;;1.60;0.80;;;26.30;38.20;;;;;;5073018;28;20021;-50
2022/04/16 09:23:53;;;;;;;1.27;0.90;;;25.90;38.90;;;;;;5072415;28;20020;-51
2022/04/16 09:26:30;;;;;;;3.50;0.80;;;26.30;37.50;;;;;;5072889;28;20013;-51
2022/04/16 09:28:55;;;;;;;1.42;1.15;;;26.60;36.40;;;;;;5072350;28;20024;-52
2022/04/16 09:31:28;;;;;;;2.42;0.75;;;26.80;36.00;;;;;;5072921;28;20104;-49
2022/04/16 09:33:54;;;;;;;1.92;1.00;;;26.20;36.70;;;;;;5072361;28;20096;-49
2022/04/16 09:36:27;;;;;;;0.80;0.80;;;27.00;36.00;;;;;;5073008;28;20029;-49
2022/04/16 09:39:06;;;;;;;0.90;0.77;;;26.60;35.50;;;;;;5072814;28;20672;-49
2022/04/16 09:41:36;;;;;;;2.42;1.13;;;25.40;36.90;;;;;;5058807;28;20037;-51
2022/04/16 09:44:02;;;;;;;3.20;1.00;;;25.50;37.80;;;;;;5057371;28;20029;-50
2022/04/16 09:46:30;;;;;;;2.03;0.98;;;25.90;37.10;;;;;;5059731;28;20013;-51
2022/04/16 09:49:03;;;;;;;0.77;0.77;;;26.50;35.90;;;;;;5064237;28;20413;-51
2022/04/16 09:51:33;;;;;;;1.10;0.85;;;27.30;35.10;;;;;;5060855;28;20025;-52
2022/04/16 09:54:01;;;;;;;;;;;27.80;34.80;;;;;;5059660;28;20024;-48
2022/04/16 09:56:29;;;;;;;1.10;0.90;;;27.00;34.60;;;;;;5054581;28;19959;-52
2022/04/16 09:58:57;;;;;;;1.08;0.90;;;28.00;34.70;;;;;;5052528;28;20479;-50
2022/04/16 10:01:24;;;;;;;1.88;0.93;;;27.40;35.70;;;;;;5052280;28;20033;-51
2022/04/16 10:03:52;;;;;;;2.17;1.10;;;27.10;34.80;;;;;;5051428;28;20052;-49
2022/04/16 10:06:19;;;;;;;1.45;1.00;;;27.40;34.00;;;;;;5052041;28;20063;-49
2022/04/16 10:08:46;;;;;;;1.95;0.77;;;27.30;36.80;;;;;;5050893;28;20127;-52
2022/04/16 10:11:19;;;;;;;2.70;1.13;;;27.20;35.70;;;;;;5062250;28;20107;-52
2022/04/16 10:14:03;;;;;;;2.35;1.00;;;26.90;36.80;;;;;;5051574;28;20029;-53
2022/04/16 10:16:44;;;;;;;1.50;0.82;;;26.30;37.10;;;;;;5061942;28;20570;-53
2022/04/16 10:19:16;;;;;;;2.30;1.00;;;26.30;37.60;;;;;;5047709;28;20382;-53
2022/04/16 10:21:42;;;;;;;2.17;1.00;;;26.70;37.90;;;;;;5058919;28;20031;-53
2022/04/16 10:24:08;;;;;;;1.88;1.10;;;26.80;38.00;;;;;;5059884;28;20029;-54
2022/04/16 10:26:38;;;;;;;1.85;0.80;;;27.80;35.60;;;;;;5059532;28;20485;-53
2022/04/16 10:29:03;;;;;;;;;;;27.80;35.50;;;;;;5059063;28;20028;-54
2022/04/16 10:31:31;;;;;;;1.20;0.75;;;26.60;37.10;;;;;;5055666;28;19939;-55
2022/04/16 10:34:01;;;;;;;1.25;0.82;;;26.20;38.60;;;;;;5059037;28;20314;-55
2022/04/16 10:36:32;;;;;;;2.03;1.38;;;26.00;38.80;;;;;;5058122;28;20036;-55
2022/04/16 10:39:11;;;;;;;1.58;0.80;;;27.00;37.80;;;;;;5056182;28;20483;-55
2022/04/16 10:41:37;;;;;;;1.75;1.05;;;26.20;37.90;;;;;;5061907;28;20085;-55
2022/04/16 10:44:09;;;;;;;1.88;0.90;;;26.50;36.70;;;;;;5057263;28;20021;-55
2022/04/16 10:46:48;;;;;;;1.63;1.00;;;26.10;39.10;;;;;;5059172;28;20021;-55
2022/04/16 10:49:14;;;;;;;0.87;0.80;;;25.80;36.90;;;;;;5063302;28;20028;-55
2022/04/16 10:51:41;;;;;;;2.00;1.17;;;27.40;35.50;;;;;;5056734;28;20273;-54
2022/04/16 10:54:10;;;;;;;0.88;0.80;;;28.00;35.60;;;;;;5060068;28;20064;-55
2022/04/16 10:56:39;;;;;;;3.30;1.30;;;29.00;33.20;;;;;;5058692;28;20020;-55
2022/04/16 10:59:06;;;;;;;2.30;1.73;;;27.60;37.20;;;;;;5058055;28;20036;-55
2022/04/16 11:01:31;;;;;;;2.15;1.00;;;27.10;36.10;;;;;;5057063;28;20024;-55
2022/04/16 11:03:57;;;;;;;1.40;0.85;;;26.90;36.40;;;;;;5058960;28;20393;-55
2022/04/16 11:06:42;;;;;;;1.20;0.80;;;26.70;35.50;;;;;;5059776;28;20024;-54
2022/04/16 11:09:11;;;;;;;1.45;0.90;;;26.40;36.20;;;;;;5059379;28;20045;-55
2022/04/16 11:11:38;;;;;;;0.80;0.80;;;26.30;34.10;;;;;;5057788;28;20032;-54
2022/04/16 11:14:07;;;;;;;1.30;1.20;;;27.00;34.30;;;;;;5058638;28;20266;-54
2022/04/16 11:16:41;;;;;;;2.05;1.17;;;26.60;34.90;;;;;;5058838;28;20486;-55
2022/04/16 11:19:12;;;;;;;2.13;1.02;;;26.60;35.80;;;;;;5067099;28;20115;-55
2022/04/16 11:21:37;;;;;;;1.60;0.95;;;26.30;34.50;;;;;;5059993;28;20016;-54
2022/04/16 11:24:05;;;;;;;1.83;0.90;;;26.50;35.30;;;;;;5059175;28;20115;-55
2022/04/16 11:34:53;;;;;;;1.10;0.80;;;26.90;33.40;;;;;;5061022;28;20031;-53
2022/04/16 11:37:20;;;;;;;1.95;1.50;;;27.50;33.70;;;;;;5061724;28;20434;-52
2022/04/16 11:39:46;;;;;;;2.05;1.45;;;26.60;33.60;;;;;;5060701;28;20043;-54
2022/04/16 11:42:12;;;;;;;1.58;1.20;;;26.20;34.60;;;;;;5058709;28;20029;-54
2022/04/16 11:44:42;;;;;;;1.75;1.10;;;25.70;35.70;;;;;;5060239;28;20013;-54
2022/04/16 11:47:08;;;;;;;;;;;25.40;34.90;;;;;;5064038;28;20021;-54
2022/04/16 11:49:35;;;;;;;1.52;1.08;;;25.70;36.40;;;;;;5074205;28;19904;-53
2022/04/16 11:52:01;;;;;;;2.75;1.08;;;25.50;35.40;;;;;;5090244;28;20569;-56
2022/04/16 11:54:31;;;;;;;1.65;0.80;;;25.90;33.90;;;;;;5090098;28;20028;-55
2022/04/16 11:56:57;;;;;;;1.05;1.00;;;26.30;35.30;;;;;;5089250;28;20522;-55
2022/04/16 11:59:24;;;;;;;2.22;1.45;;;25.80;35.60;;;;;;5090171;28;20043;-53
2022/04/16 12:02:09;;;;;;;3.72;1.70;;;25.70;36.00;;;;;;5089977;28;20433;-52
2022/04/16 12:04:36;;;;;;;2.28;1.70;;;24.80;37.70;;;;;;5089135;28;20077;-52
2022/04/16 12:07:01;;;;;;;3.30;1.23;;;25.20;34.10;;;;;;5087254;28;20020;-55
2022/04/16 12:09:27;;;;;;;1.35;1.20;;;24.70;35.40;;;;;;5088710;28;20110;-51
2022/04/16 12:11:56;;;;;;;3.72;0.85;;;24.00;35.60;;;;;;5089333;28;20020;-51
2022/04/16 12:14:23;;;;;;;5.32;1.30;;;23.10;38.40;;;;;;5086836;28;20032;-52
2022/04/16 12:17:09;;;;;;;4.22;1.20;;;22.70;38.50;;;;;;5085557;28;20088;-47
2022/04/16 12:19:35;;;;;;;2.70;1.23;;;22.20;39.20;;;;;;5078247;28;20056;-50
2022/04/16 12:22:00;;;;;;;1.83;1.70;;;21.70;38.60;;;;;;5087119;28;20109;-48
2022/04/16 12:24:29;;;;;;;1.33;1.10;;;21.30;41.10;;;;;;5087937;28;20021;-50
2022/04/16 12:26:56;;;;;;;1.48;1.10;;;21.40;38.80;;;;;;5088984;28;20024;-50
2022/04/16 12:29:29;;;;;;;1.67;1.20;;;21.30;39.10;;;;;;5088730;28;20020;-50
2022/04/16 12:31:59;;;;;;;3.53;1.10;;;21.10;39.10;;;;;;5088481;28;20020;-49
2022/04/16 12:34:26;;;;;;;1.35;0.80;;;20.70;39.40;;;;;;5088008;28;20401;-50
2022/04/16 12:36:52;;;;;;;1.50;1.30;;;20.10;40.50;;;;;;5088492;28;20277;-50
2022/04/16 12:39:18;;;;;;;2.30;1.50;;;19.30;41.00;;;;;;5087108;28;20028;-50
2022/04/16 12:41:43;;;;;;;2.55;1.73;;;19.30;43.10;;;;;;5088538;28;20496;-51
2022/04/16 12:44:08;;;;;;;1.58;1.08;;;19.10;42.60;;;;;;5087957;28;20441;-48
2022/04/16 12:46:34;;;;;;;3.33;1.30;;;19.30;45.60;;;;;;5086871;28;20028;-50
2022/04/16 12:48:59;;;;;;;2.30;1.30;;;19.40;42.20;;;;;;5079997;28;20105;-49
2022/04/16 12:51:26;;;;;;;1.42;1.20;;;19.60;41.70;;;;;;5088234;28;20032;-48
2022/04/16 12:53:52;;;;;;;1.33;1.08;;;19.40;40.70;;;;;;5087632;28;20030;-50
2022/04/16 12:56:17;;;;;;;3.22;1.17;;;19.40;42.00;;;;;;5088427;28;20477;-51
2022/04/16 12:58:43;;;;;;;2.22;1.20;;;19.60;43.20;;;;;;5088299;28;20161;-50
2022/04/16 13:01:09;;;;;;;3.25;1.35;;;19.50;44.20;;;;;;5086644;28;20020;-48
2022/04/16 13:03:34;;;;;;;0.98;0.85;;;19.80;44.60;;;;;;5089810;28;20073;-48
2022/04/16 13:06:00;;;;;;;2.95;1.30;;;19.50;41.80;;;;;;5090834;28;20028;-49
2022/04/16 13:08:25;;;;;;;1.63;0.90;;;19.30;43.50;;;;;;5092283;28;20448;-47
2022/04/16 13:10:51;;;;;;;2.22;1.05;;;19.10;41.90;;;;;;5092308;28;20054;-49
2022/04/16 13:13:17;;;;;;;1.30;1.00;;;19.00;42.90;;;;;;5091643;28;20028;-50